Cachoeira Dourada, Brazil
Current Conditions -  °F | °C
As of 6:30 PM on Wednesday 26 Nov 2014 (Local Time) from SBUL Reporting Station
Thunderstorm Thunderstorm  
Wind Chill: 70°   Ceiling: 600
Heat Index: 70°   Visibility: 6mi
Dew Point: 66°   Wind: 10mph
Humidity: 88%   Direction: 240°WSW
Pressure: 29.91"   Gusts: NA
Location:  18.52°S, 49.5°W
Report Text: SBUL 262030Z 24009KT 9999 3000SW -TSRA BKN006 FEW035CB 21/19 Q1013
Loading
Personal Weather Stations






























Interactive Weather Map New forecast layout! Learn more

10-Day Weather Forecast

Advertisements
Track Severe Weather on mobile